EGNR/CEG METAR and TAF weather

Enter ICAO airport designator
Station Type Date Time Source
EGNR METAR 2021/04/13 07:20 UTC NOAA

EGNR 130720Z 14004KT 110V170 CAVOK 02/00 Q1033


Station Type Date Time Source
EGNR Decoded METAR 2021/04/13 07:20 UTC NOAA

Hawarden, United Kingdom (EGNR) 53-10N 002-59W 0M
Apr 13, 2021 - 03:20 AM EDT / 2021.04.13 0720 UTC
Wind: from the SE (140 degrees) at 5 MPH (4 KT) (direction variable):0
Visibility: greater than 7 mile(s):0
Temperature: 35 F (2 C)
Windchill: 30 F (-1 C):1
Dew Point: 32 F (0 C)
Relative Humidity: 86%
Pressure (altimeter): 30.50 in. Hg (1033 hPa)
ob: EGNR 130720Z 14004KT 110V170 CAVOK 02/00 Q1033
cycle: 7

Station Type Date Time Source
EGNR TAF 2016/01/23 12:00 UTC NOAA

TAF EGNR 231059Z 2312/2319 15009KT 9999 FEW020
BECMG 2316/2319 BKN014
TEMPO 2317/2319 6000 RA BKN008

Example: see airport list